sensor_id;sensor_type;location;lat;lon;timestamp;P1;durP1;ratioP1;P2;durP2;ratioP2
40162;SDS011;25881;47.462;19.304;2022-11-04T00:01:13;62.58;;;31.75;;
40162;SDS011;25881;47.462;19.304;2022-11-04T00:03:39;57.75;;;31.23;;
40162;SDS011;25881;47.462;19.304;2022-11-04T00:06:04;52.57;;;28.60;;
40162;SDS011;25881;47.462;19.304;2022-11-04T00:08:29;61.28;;;31.88;;
40162;SDS011;25881;47.462;19.304;2022-11-04T00:10:58;53.27;;;29.63;;
40162;SDS011;25881;47.462;19.304;2022-11-04T00:13:42;58.55;;;30.90;;
40162;SDS011;25881;47.462;19.304;2022-11-04T00:16:07;58.77;;;31.47;;
40162;SDS011;25881;47.462;19.304;2022-11-04T00:18:51;63.17;;;31.75;;
40162;SDS011;25881;47.462;19.304;2022-11-04T00:21:16;61.47;;;33.13;;
40162;SDS011;25881;47.462;19.304;2022-11-04T00:24:00;74.97;;;34.72;;
40162;SDS011;25881;47.462;19.304;2022-11-04T00:26:44;62.88;;;30.80;;
40162;SDS011;25881;47.462;19.304;2022-11-04T00:29:28;71.25;;;35.53;;
40162;SDS011;25881;47.462;19.304;2022-11-04T00:31:53;72.23;;;35.63;;
40162;SDS011;25881;47.462;19.304;2022-11-04T00:34:37;71.20;;;34.42;;
40162;SDS011;25881;47.462;19.304;2022-11-04T00:37:02;79.97;;;38.27;;
40162;SDS011;25881;47.462;19.304;2022-11-04T00:39:27;75.70;;;37.97;;
40162;SDS011;25881;47.462;19.304;2022-11-04T00:41:53;82.30;;;38.70;;
40162;SDS011;25881;47.462;19.304;2022-11-04T00:44:18;81.15;;;38.00;;
40162;SDS011;25881;47.462;19.304;2022-11-04T00:46:43;80.40;;;38.30;;
40162;SDS011;25881;47.462;19.304;2022-11-04T00:49:08;83.77;;;39.17;;
40162;SDS011;25881;47.462;19.304;2022-11-04T00:51:34;83.57;;;39.23;;
40162;SDS011;25881;47.462;19.304;2022-11-04T00:53:59;95.97;;;40.63;;
40162;SDS011;25881;47.462;19.304;2022-11-04T00:56:24;88.57;;;40.97;;
40162;SDS011;25881;47.462;19.304;2022-11-04T00:58:49;85.57;;;40.30;;
40162;SDS011;25881;47.462;19.304;2022-11-04T01:01:15;91.17;;;42.43;;
40162;SDS011;25881;47.462;19.304;2022-11-04T01:03:44;87.95;;;40.90;;
40162;SDS011;25881;47.462;19.304;2022-11-04T01:06:09;78.03;;;40.13;;
40162;SDS011;25881;47.462;19.304;2022-11-04T01:08:34;99.57;;;44.83;;
40162;SDS011;25881;47.462;19.304;2022-11-04T01:11:00;94.33;;;42.27;;
40162;SDS011;25881;47.462;19.304;2022-11-04T01:13:26;92.03;;;41.50;;
40162;SDS011;25881;47.462;19.304;2022-11-04T01:15:51;100.53;;;43.37;;
40162;SDS011;25881;47.462;19.304;2022-11-04T01:18:16;100.87;;;42.90;;
40162;SDS011;25881;47.462;19.304;2022-11-04T01:20:41;96.43;;;41.50;;
40162;SDS011;25881;47.462;19.304;2022-11-04T01:23:06;99.10;;;43.53;;
40162;SDS011;25881;47.462;19.304;2022-11-04T01:25:32;100.27;;;41.90;;
40162;SDS011;25881;47.462;19.304;2022-11-04T01:27:57;97.87;;;40.90;;
40162;SDS011;25881;47.462;19.304;2022-11-04T01:30:22;97.17;;;42.47;;
40162;SDS011;25881;47.462;19.304;2022-11-04T01:32:47;97.50;;;42.60;;
40162;SDS011;25881;47.462;19.304;2022-11-04T01:35:12;98.53;;;42.43;;
40162;SDS011;25881;47.462;19.304;2022-11-04T01:37:38;88.80;;;43.13;;
40162;SDS011;25881;47.462;19.304;2022-11-04T01:40:03;121.60;;;45.40;;
40162;SDS011;25881;47.462;19.304;2022-11-04T01:42:28;94.80;;;41.08;;
40162;SDS011;25881;47.462;19.304;2022-11-04T01:44:57;95.47;;;42.13;;
40162;SDS011;25881;47.462;19.304;2022-11-04T01:50:10;103.40;;;43.50;;
40162;SDS011;25881;47.462;19.304;2022-11-04T01:52:42;115.13;;;43.50;;
40162;SDS011;25881;47.462;19.304;2022-11-04T01:55:11;102.90;;;43.30;;
40162;SDS011;25881;47.462;19.304;2022-11-04T01:57:39;118.70;;;46.55;;
40162;SDS011;25881;47.462;19.304;2022-11-04T02:00:05;125.63;;;47.85;;
40162;SDS011;25881;47.462;19.304;2022-11-04T02:02:31;104.22;;;42.97;;
40162;SDS011;25881;47.462;19.304;2022-11-04T02:04:56;114.35;;;46.28;;
40162;SDS011;25881;47.462;19.304;2022-11-04T02:07:21;93.77;;;42.77;;
40162;SDS011;25881;47.462;19.304;2022-11-04T02:09:47;111.50;;;42.50;;
40162;SDS011;25881;47.462;19.304;2022-11-04T02:12:13;93.93;;;40.75;;
40162;SDS011;25881;47.462;19.304;2022-11-04T02:14:57;89.60;;;40.10;;
40162;SDS011;25881;47.462;19.304;2022-11-04T02:17:28;112.00;;;44.95;;
40162;SDS011;25881;47.462;19.304;2022-11-04T02:25:23;119.60;;;47.00;;
40162;SDS011;25881;47.462;19.304;2022-11-04T02:30:47;103.55;;;46.83;;
40162;SDS011;25881;47.462;19.304;2022-11-04T02:33:16;104.20;;;48.45;;
40162;SDS011;25881;47.462;19.304;2022-11-04T02:40:42;101.35;;;46.10;;
40162;SDS011;25881;47.462;19.304;2022-11-04T02:43:17;97.18;;;45.97;;
40162;SDS011;25881;47.462;19.304;2022-11-04T02:45:49;91.82;;;44.00;;
40162;SDS011;25881;47.462;19.304;2022-11-04T02:50:51;99.90;;;46.17;;
40162;SDS011;25881;47.462;19.304;2022-11-04T02:53:39;100.65;;;48.33;;
40162;SDS011;25881;47.462;19.304;2022-11-04T02:56:03;88.68;;;44.88;;
40162;SDS011;25881;47.462;19.304;2022-11-04T02:58:31;92.07;;;43.92;;
40162;SDS011;25881;47.462;19.304;2022-11-04T03:00:58;84.45;;;41.83;;
40162;SDS011;25881;47.462;19.304;2022-11-04T03:03:25;89.15;;;44.40;;
40162;SDS011;25881;47.462;19.304;2022-11-04T03:05:52;94.78;;;42.72;;
40162;SDS011;25881;47.462;19.304;2022-11-04T03:08:20;92.15;;;43.80;;
40162;SDS011;25881;47.462;19.304;2022-11-04T03:10:49;94.13;;;43.27;;
40162;SDS011;25881;47.462;19.304;2022-11-04T03:13:16;97.75;;;43.83;;
40162;SDS011;25881;47.462;19.304;2022-11-04T03:15:47;99.18;;;42.80;;
40162;SDS011;25881;47.462;19.304;2022-11-04T03:20:43;93.38;;;42.17;;
40162;SDS011;25881;47.462;19.304;2022-11-04T03:23:09;91.70;;;41.47;;
40162;SDS011;25881;47.462;19.304;2022-11-04T03:25:36;97.72;;;43.83;;
40162;SDS011;25881;47.462;19.304;2022-11-04T03:30:27;117.80;;;47.07;;
40162;SDS011;25881;47.462;19.304;2022-11-04T03:33:04;113.90;;;45.30;;
40162;SDS011;25881;47.462;19.304;2022-11-04T03:35:31;97.32;;;43.47;;
40162;SDS011;25881;47.462;19.304;2022-11-04T03:37:57;97.45;;;44.17;;
40162;SDS011;25881;47.462;19.304;2022-11-04T03:40:22;92.35;;;40.83;;
40162;SDS011;25881;47.462;19.304;2022-11-04T03:42:51;94.05;;;41.28;;
40162;SDS011;25881;47.462;19.304;2022-11-04T03:45:18;94.25;;;40.85;;
40162;SDS011;25881;47.462;19.304;2022-11-04T03:47:43;102.37;;;45.33;;
40162;SDS011;25881;47.462;19.304;2022-11-04T03:50:10;95.93;;;43.78;;
40162;SDS011;25881;47.462;19.304;2022-11-04T03:52:36;100.85;;;44.55;;
40162;SDS011;25881;47.462;19.304;2022-11-04T03:55:02;96.07;;;43.15;;
40162;SDS011;25881;47.462;19.304;2022-11-04T04:00:09;104.30;;;46.03;;
40162;SDS011;25881;47.462;19.304;2022-11-04T04:02:40;104.90;;;46.90;;
40162;SDS011;25881;47.462;19.304;2022-11-04T04:05:10;105.53;;;44.72;;
40162;SDS011;25881;47.462;19.304;2022-11-04T04:07:39;100.68;;;43.30;;
40162;SDS011;25881;47.462;19.304;2022-11-04T04:10:13;112.22;;;47.13;;
40162;SDS011;25881;47.462;19.304;2022-11-04T04:13:04;87.68;;;39.95;;
40162;SDS011;25881;47.462;19.304;2022-11-04T04:15:37;100.63;;;41.33;;
40162;SDS011;25881;47.462;19.304;2022-11-04T04:18:06;93.88;;;41.80;;
40162;SDS011;25881;47.462;19.304;2022-11-04T04:20:34;90.55;;;42.80;;
40162;SDS011;25881;47.462;19.304;2022-11-04T04:23:02;90.90;;;39.58;;
40162;SDS011;25881;47.462;19.304;2022-11-04T04:25:48;89.30;;;40.63;;
40162;SDS011;25881;47.462;19.304;2022-11-04T04:28:33;97.20;;;40.42;;
40162;SDS011;25881;47.462;19.304;2022-11-04T04:30:59;89.15;;;40.00;;
40162;SDS011;25881;47.462;19.304;2022-11-04T04:33:24;84.80;;;39.03;;
40162;SDS011;25881;47.462;19.304;2022-11-04T04:35:51;80.50;;;40.73;;
40162;SDS011;25881;47.462;19.304;2022-11-04T04:38:21;83.00;;;38.58;;
40162;SDS011;25881;47.462;19.304;2022-11-04T04:41:08;87.85;;;40.00;;
40162;SDS011;25881;47.462;19.304;2022-11-04T04:43:52;87.60;;;42.17;;
40162;SDS011;25881;47.462;19.304;2022-11-04T04:46:36;79.93;;;39.00;;
40162;SDS011;25881;47.462;19.304;2022-11-04T04:49:06;72.88;;;37.65;;
40162;SDS011;25881;47.462;19.304;2022-11-04T04:51:31;84.07;;;40.20;;
40162;SDS011;25881;47.462;19.304;2022-11-04T04:53:57;91.93;;;42.67;;
40162;SDS011;25881;47.462;19.304;2022-11-04T04:56:22;101.07;;;44.33;;
40162;SDS011;25881;47.462;19.304;2022-11-04T04:58:47;90.07;;;39.70;;
40162;SDS011;25881;47.462;19.304;2022-11-04T05:01:13;100.27;;;41.77;;
40162;SDS011;25881;47.462;19.304;2022-11-04T05:03:38;97.03;;;41.93;;
40162;SDS011;25881;47.462;19.304;2022-11-04T05:06:03;85.17;;;41.40;;
40162;SDS011;25881;47.462;19.304;2022-11-04T05:08:28;99.10;;;42.17;;
40162;SDS011;25881;47.462;19.304;2022-11-04T05:10:53;87.28;;;41.03;;
40162;SDS011;25881;47.462;19.304;2022-11-04T05:13:19;89.03;;;41.53;;
40162;SDS011;25881;47.462;19.304;2022-11-04T05:15:50;95.68;;;42.95;;
40162;SDS011;25881;47.462;19.304;2022-11-04T05:18:15;92.90;;;43.28;;
40162;SDS011;25881;47.462;19.304;2022-11-04T05:20:40;92.68;;;42.88;;
40162;SDS011;25881;47.462;19.304;2022-11-04T05:23:06;90.03;;;41.37;;
40162;SDS011;25881;47.462;19.304;2022-11-04T05:25:31;82.97;;;39.85;;
40162;SDS011;25881;47.462;19.304;2022-11-04T05:28:00;97.00;;;42.23;;
40162;SDS011;25881;47.462;19.304;2022-11-04T05:30:26;83.03;;;41.05;;
40162;SDS011;25881;47.462;19.304;2022-11-04T05:32:51;81.35;;;40.50;;
40162;SDS011;25881;47.462;19.304;2022-11-04T05:35:16;92.27;;;41.57;;
40162;SDS011;25881;47.462;19.304;2022-11-04T05:37:41;77.53;;;38.25;;
40162;SDS011;25881;47.462;19.304;2022-11-04T05:40:07;82.60;;;40.17;;
40162;SDS011;25881;47.462;19.304;2022-11-04T05:42:32;79.45;;;40.55;;
40162;SDS011;25881;47.462;19.304;2022-11-04T05:44:57;82.45;;;41.65;;
40162;SDS011;25881;47.462;19.304;2022-11-04T05:47:22;75.67;;;36.97;;
40162;SDS011;25881;47.462;19.304;2022-11-04T05:49:48;75.03;;;40.37;;
40162;SDS011;25881;47.462;19.304;2022-11-04T05:52:13;83.17;;;39.17;;
40162;SDS011;25881;47.462;19.304;2022-11-04T05:54:38;75.32;;;40.15;;
40162;SDS011;25881;47.462;19.304;2022-11-04T05:57:03;81.33;;;40.50;;
40162;SDS011;25881;47.462;19.304;2022-11-04T05:59:29;73.23;;;39.90;;
40162;SDS011;25881;47.462;19.304;2022-11-04T06:01:54;89.40;;;42.70;;
40162;SDS011;25881;47.462;19.304;2022-11-04T06:04:19;84.00;;;41.27;;
40162;SDS011;25881;47.462;19.304;2022-11-04T06:06:44;86.30;;;43.53;;
40162;SDS011;25881;47.462;19.304;2022-11-04T06:09:09;83.03;;;40.78;;
40162;SDS011;25881;47.462;19.304;2022-11-04T06:11:35;77.32;;;39.70;;
40162;SDS011;25881;47.462;19.304;2022-11-04T06:14:01;79.63;;;40.92;;
40162;SDS011;25881;47.462;19.304;2022-11-04T06:16:26;77.03;;;38.83;;
40162;SDS011;25881;47.462;19.304;2022-11-04T06:18:51;71.85;;;37.97;;
40162;SDS011;25881;47.462;19.304;2022-11-04T06:21:24;79.85;;;39.65;;
40162;SDS011;25881;47.462;19.304;2022-11-04T06:23:50;78.60;;;42.10;;
40162;SDS011;25881;47.462;19.304;2022-11-04T06:26:15;74.00;;;39.35;;
40162;SDS011;25881;47.462;19.304;2022-11-04T06:28:41;76.65;;;39.63;;
40162;SDS011;25881;47.462;19.304;2022-11-04T06:31:07;76.55;;;39.20;;
40162;SDS011;25881;47.462;19.304;2022-11-04T06:33:33;71.45;;;37.17;;
40162;SDS011;25881;47.462;19.304;2022-11-04T06:35:58;73.87;;;38.57;;
40162;SDS011;25881;47.462;19.304;2022-11-04T06:38:23;72.43;;;37.97;;
40162;SDS011;25881;47.462;19.304;2022-11-04T06:40:49;77.60;;;39.70;;
40162;SDS011;25881;47.462;19.304;2022-11-04T06:43:14;73.50;;;39.73;;
40162;SDS011;25881;47.462;19.304;2022-11-04T06:45:39;75.87;;;39.10;;
40162;SDS011;25881;47.462;19.304;2022-11-04T06:48:04;67.97;;;38.00;;
40162;SDS011;25881;47.462;19.304;2022-11-04T06:50:30;67.85;;;37.38;;
40162;SDS011;25881;47.462;19.304;2022-11-04T06:52:55;71.57;;;37.47;;
40162;SDS011;25881;47.462;19.304;2022-11-04T06:55:20;72.23;;;35.77;;
40162;SDS011;25881;47.462;19.304;2022-11-04T06:57:45;65.93;;;35.70;;
40162;SDS011;25881;47.462;19.304;2022-11-04T07:00:11;63.40;;;35.50;;
40162;SDS011;25881;47.462;19.304;2022-11-04T07:02:36;69.47;;;37.35;;
40162;SDS011;25881;47.462;19.304;2022-11-04T07:05:02;69.65;;;36.55;;
40162;SDS011;25881;47.462;19.304;2022-11-04T07:07:28;68.78;;;37.42;;
40162;SDS011;25881;47.462;19.304;2022-11-04T07:09:53;78.07;;;40.60;;
40162;SDS011;25881;47.462;19.304;2022-11-04T07:12:19;72.27;;;37.87;;
40162;SDS011;25881;47.462;19.304;2022-11-04T07:14:46;62.45;;;37.53;;
40162;SDS011;25881;47.462;19.304;2022-11-04T07:17:11;68.27;;;39.10;;
40162;SDS011;25881;47.462;19.304;2022-11-04T07:19:36;70.83;;;37.17;;
40162;SDS011;25881;47.462;19.304;2022-11-04T07:22:01;68.43;;;39.17;;
40162;SDS011;25881;47.462;19.304;2022-11-04T07:24:27;68.17;;;36.67;;
40162;SDS011;25881;47.462;19.304;2022-11-04T07:26:53;72.17;;;39.07;;
40162;SDS011;25881;47.462;19.304;2022-11-04T07:29:19;69.03;;;38.00;;
40162;SDS011;25881;47.462;19.304;2022-11-04T07:31:44;65.05;;;37.40;;
40162;SDS011;25881;47.462;19.304;2022-11-04T07:34:09;64.67;;;38.07;;
40162;SDS011;25881;47.462;19.304;2022-11-04T07:36:34;64.17;;;35.03;;
40162;SDS011;25881;47.462;19.304;2022-11-04T07:39:00;67.17;;;37.93;;
40162;SDS011;25881;47.462;19.304;2022-11-04T07:41:26;71.05;;;38.10;;
40162;SDS011;25881;47.462;19.304;2022-11-04T07:43:51;73.00;;;37.63;;
40162;SDS011;25881;47.462;19.304;2022-11-04T07:46:17;66.50;;;36.70;;
40162;SDS011;25881;47.462;19.304;2022-11-04T07:48:43;71.85;;;38.80;;
40162;SDS011;25881;47.462;19.304;2022-11-04T07:51:12;78.63;;;40.80;;
40162;SDS011;25881;47.462;19.304;2022-11-04T07:56:05;70.28;;;38.55;;
40162;SDS011;25881;47.462;19.304;2022-11-04T07:58:31;74.50;;;40.97;;
40162;SDS011;25881;47.462;19.304;2022-11-04T08:00:57;80.28;;;43.75;;
40162;SDS011;25881;47.462;19.304;2022-11-04T08:03:24;75.30;;;42.43;;
40162;SDS011;25881;47.462;19.304;2022-11-04T08:05:56;68.35;;;39.15;;
40162;SDS011;25881;47.462;19.304;2022-11-04T08:08:22;77.85;;;42.17;;
40162;SDS011;25881;47.462;19.304;2022-11-04T08:10:52;73.78;;;41.92;;
40162;SDS011;25881;47.462;19.304;2022-11-04T08:13:18;70.53;;;41.08;;
40162;SDS011;25881;47.462;19.304;2022-11-04T08:15:43;70.63;;;39.33;;
40162;SDS011;25881;47.462;19.304;2022-11-04T08:18:08;71.00;;;41.43;;
40162;SDS011;25881;47.462;19.304;2022-11-04T08:20:34;75.63;;;40.90;;
40162;SDS011;25881;47.462;19.304;2022-11-04T08:23:00;70.70;;;41.60;;
40162;SDS011;25881;47.462;19.304;2022-11-04T08:25:25;73.67;;;39.90;;
40162;SDS011;25881;47.462;19.304;2022-11-04T08:27:50;73.37;;;40.83;;
40162;SDS011;25881;47.462;19.304;2022-11-04T08:30:16;72.30;;;42.15;;
40162;SDS011;25881;47.462;19.304;2022-11-04T08:32:41;72.60;;;43.83;;
40162;SDS011;25881;47.462;19.304;2022-11-04T08:35:08;74.50;;;41.20;;
40162;SDS011;25881;47.462;19.304;2022-11-04T08:37:33;71.70;;;42.78;;
40162;SDS011;25881;47.462;19.304;2022-11-04T08:39:59;71.75;;;42.05;;
40162;SDS011;25881;47.462;19.304;2022-11-04T08:42:24;71.83;;;42.23;;
40162;SDS011;25881;47.462;19.304;2022-11-04T08:44:50;83.07;;;46.03;;
40162;SDS011;25881;47.462;19.304;2022-11-04T08:47:15;71.38;;;42.90;;
40162;SDS011;25881;47.462;19.304;2022-11-04T08:49:40;68.10;;;42.47;;
40162;SDS011;25881;47.462;19.304;2022-11-04T08:52:06;82.35;;;47.53;;
40162;SDS011;25881;47.462;19.304;2022-11-04T08:54:31;79.73;;;47.33;;
40162;SDS011;25881;47.462;19.304;2022-11-04T08:56:57;82.30;;;46.97;;
40162;SDS011;25881;47.462;19.304;2022-11-04T08:59:22;80.80;;;46.08;;
40162;SDS011;25881;47.462;19.304;2022-11-04T09:01:49;79.57;;;46.53;;
40162;SDS011;25881;47.462;19.304;2022-11-04T09:04:14;73.67;;;45.40;;
40162;SDS011;25881;47.462;19.304;2022-11-04T09:06:41;77.37;;;45.70;;
40162;SDS011;25881;47.462;19.304;2022-11-04T09:09:07;78.70;;;45.58;;
40162;SDS011;25881;47.462;19.304;2022-11-04T09:11:35;73.97;;;43.05;;
40162;SDS011;25881;47.462;19.304;2022-11-04T09:14:01;74.90;;;46.03;;
40162;SDS011;25881;47.462;19.304;2022-11-04T09:16:26;94.78;;;51.00;;
40162;SDS011;25881;47.462;19.304;2022-11-04T09:18:52;80.97;;;46.22;;
40162;SDS011;25881;47.462;19.304;2022-11-04T09:21:17;83.50;;;48.20;;
40162;SDS011;25881;47.462;19.304;2022-11-04T09:23:42;73.47;;;45.47;;
40162;SDS011;25881;47.462;19.304;2022-11-04T09:26:09;79.80;;;46.73;;
40162;SDS011;25881;47.462;19.304;2022-11-04T09:28:34;78.07;;;46.67;;
40162;SDS011;25881;47.462;19.304;2022-11-04T09:31:03;75.90;;;46.33;;
40162;SDS011;25881;47.462;19.304;2022-11-04T09:33:28;76.90;;;47.28;;
40162;SDS011;25881;47.462;19.304;2022-11-04T09:35:56;81.73;;;47.57;;
40162;SDS011;25881;47.462;19.304;2022-11-04T09:38:22;75.38;;;47.15;;
40162;SDS011;25881;47.462;19.304;2022-11-04T09:40:47;80.75;;;47.45;;
40162;SDS011;25881;47.462;19.304;2022-11-04T09:45:42;74.07;;;46.42;;
40162;SDS011;25881;47.462;19.304;2022-11-04T09:48:13;76.47;;;47.50;;
40162;SDS011;25881;47.462;19.304;2022-11-04T09:50:44;79.05;;;47.75;;
40162;SDS011;25881;47.462;19.304;2022-11-04T09:53:13;76.53;;;48.07;;
40162;SDS011;25881;47.462;19.304;2022-11-04T09:55:45;77.80;;;46.72;;
40162;SDS011;25881;47.462;19.304;2022-11-04T09:58:13;73.32;;;47.22;;
40162;SDS011;25881;47.462;19.304;2022-11-04T10:00:38;84.07;;;49.25;;
40162;SDS011;25881;47.462;19.304;2022-11-04T10:21:15;79.93;;;49.95;;
40162;SDS011;25881;47.462;19.304;2022-11-04T10:23:42;81.88;;;51.03;;
40162;SDS011;25881;47.462;19.304;2022-11-04T10:26:18;82.03;;;51.55;;
40162;SDS011;25881;47.462;19.304;2022-11-04T10:28:51;80.03;;;50.97;;
40162;SDS011;25881;47.462;19.304;2022-11-04T10:31:18;84.85;;;51.90;;
40162;SDS011;25881;47.462;19.304;2022-11-04T10:33:44;88.33;;;52.83;;
40162;SDS011;25881;47.462;19.304;2022-11-04T10:36:11;78.80;;;50.50;;
40162;SDS011;25881;47.462;19.304;2022-11-04T10:43:49;83.88;;;51.35;;
40162;SDS011;25881;47.462;19.304;2022-11-04T10:48:58;83.93;;;51.13;;
40162;SDS011;25881;47.462;19.304;2022-11-04T10:51:25;80.78;;;51.00;;
40162;SDS011;25881;47.462;19.304;2022-11-04T10:53:52;83.20;;;50.87;;
40162;SDS011;25881;47.462;19.304;2022-11-04T10:56:21;80.67;;;51.40;;
40162;SDS011;25881;47.462;19.304;2022-11-04T10:58:49;85.22;;;52.08;;
40162;SDS011;25881;47.462;19.304;2022-11-04T11:03:49;85.72;;;50.55;;
40162;SDS011;25881;47.462;19.304;2022-11-04T11:08:48;83.18;;;50.40;;
40162;SDS011;25881;47.462;19.304;2022-11-04T11:11:15;86.47;;;50.85;;
40162;SDS011;25881;47.462;19.304;2022-11-04T11:13:44;78.00;;;49.00;;
40162;SDS011;25881;47.462;19.304;2022-11-04T11:18:35;84.28;;;50.53;;
40162;SDS011;25881;47.462;19.304;2022-11-04T11:21:07;80.18;;;51.70;;
40162;SDS011;25881;47.462;19.304;2022-11-04T11:23:45;80.43;;;50.58;;
40162;SDS011;25881;47.462;19.304;2022-11-04T11:26:15;86.88;;;49.40;;
40162;SDS011;25881;47.462;19.304;2022-11-04T11:28:46;83.18;;;49.80;;
40162;SDS011;25881;47.462;19.304;2022-11-04T11:31:12;78.82;;;52.00;;
40162;SDS011;25881;47.462;19.304;2022-11-04T11:33:47;85.55;;;52.97;;
40162;SDS011;25881;47.462;19.304;2022-11-04T11:36:32;81.05;;;51.92;;
40162;SDS011;25881;47.462;19.304;2022-11-04T11:38:59;83.97;;;51.05;;
40162;SDS011;25881;47.462;19.304;2022-11-04T11:41:27;87.07;;;51.85;;
40162;SDS011;25881;47.462;19.304;2022-11-04T11:43:55;85.75;;;51.30;;
40162;SDS011;25881;47.462;19.304;2022-11-04T11:46:22;82.53;;;51.83;;
40162;SDS011;25881;47.462;19.304;2022-11-04T11:48:52;86.30;;;54.28;;
40162;SDS011;25881;47.462;19.304;2022-11-04T11:51:25;81.07;;;50.33;;
40162;SDS011;25881;47.462;19.304;2022-11-04T11:56:27;84.22;;;53.13;;
40162;SDS011;25881;47.462;19.304;2022-11-04T11:58:58;78.05;;;51.08;;
40162;SDS011;25881;47.462;19.304;2022-11-04T12:01:37;85.22;;;49.75;;
40162;SDS011;25881;47.462;19.304;2022-11-04T12:04:06;80.53;;;49.15;;
40162;SDS011;25881;47.462;19.304;2022-11-04T12:09:10;74.18;;;46.95;;
40162;SDS011;25881;47.462;19.304;2022-11-04T12:11:44;72.88;;;44.00;;
40162;SDS011;25881;47.462;19.304;2022-11-04T12:14:16;77.55;;;46.33;;
40162;SDS011;25881;47.462;19.304;2022-11-04T12:16:52;76.88;;;45.70;;
40162;SDS011;25881;47.462;19.304;2022-11-04T12:29:50;73.18;;;44.63;;
40162;SDS011;25881;47.462;19.304;2022-11-04T12:32:27;67.00;;;40.80;;
40162;SDS011;25881;47.462;19.304;2022-11-04T12:42:52;68.03;;;38.85;;
40162;SDS011;25881;47.462;19.304;2022-11-04T12:47:51;62.80;;;38.08;;
40162;SDS011;25881;47.462;19.304;2022-11-04T12:58:13;62.75;;;39.17;;
40162;SDS011;25881;47.462;19.304;2022-11-04T13:00:41;60.80;;;37.67;;
40162;SDS011;25881;47.462;19.304;2022-11-04T13:03:13;54.95;;;36.25;;
40162;SDS011;25881;47.462;19.304;2022-11-04T13:05:41;55.65;;;36.08;;
40162;SDS011;25881;47.462;19.304;2022-11-04T13:10:53;60.20;;;34.92;;
40162;SDS011;25881;47.462;19.304;2022-11-04T13:13:22;57.05;;;36.80;;
40162;SDS011;25881;47.462;19.304;2022-11-04T13:16:00;70.78;;;37.15;;
40162;SDS011;25881;47.462;19.304;2022-11-04T13:18:27;60.95;;;36.72;;
40162;SDS011;25881;47.462;19.304;2022-11-04T13:21:01;52.83;;;35.20;;
40162;SDS011;25881;47.462;19.304;2022-11-04T13:23:31;63.72;;;35.90;;
40162;SDS011;25881;47.462;19.304;2022-11-04T13:25:58;58.88;;;35.53;;
40162;SDS011;25881;47.462;19.304;2022-11-04T13:28:25;54.95;;;34.67;;
40162;SDS011;25881;47.462;19.304;2022-11-04T13:31:05;61.40;;;36.93;;
40162;SDS011;25881;47.462;19.304;2022-11-04T13:33:52;53.35;;;34.65;;
40162;SDS011;25881;47.462;19.304;2022-11-04T13:39:03;54.70;;;33.80;;
40162;SDS011;25881;47.462;19.304;2022-11-04T13:41:34;53.78;;;33.40;;
40162;SDS011;25881;47.462;19.304;2022-11-04T13:44:04;55.25;;;33.97;;
40162;SDS011;25881;47.462;19.304;2022-11-04T13:46:37;56.25;;;35.33;;
40162;SDS011;25881;47.462;19.304;2022-11-04T13:49:05;51.22;;;33.80;;
40162;SDS011;25881;47.462;19.304;2022-11-04T13:51:38;52.83;;;35.03;;
40162;SDS011;25881;47.462;19.304;2022-11-04T13:54:05;54.83;;;34.55;;
40162;SDS011;25881;47.462;19.304;2022-11-04T13:59:00;62.65;;;35.90;;
40162;SDS011;25881;47.462;19.304;2022-11-04T14:01:27;54.63;;;35.15;;
40162;SDS011;25881;47.462;19.304;2022-11-04T14:04:00;60.03;;;36.13;;
40162;SDS011;25881;47.462;19.304;2022-11-04T14:14:31;59.35;;;35.88;;
40162;SDS011;25881;47.462;19.304;2022-11-04T14:16:57;56.20;;;35.20;;
40162;SDS011;25881;47.462;19.304;2022-11-04T14:22:28;56.92;;;34.55;;
40162;SDS011;25881;47.462;19.304;2022-11-04T14:24:55;61.08;;;36.67;;
40162;SDS011;25881;47.462;19.304;2022-11-04T14:27:25;55.33;;;34.53;;
40162;SDS011;25881;47.462;19.304;2022-11-04T14:29:51;56.83;;;34.10;;
40162;SDS011;25881;47.462;19.304;2022-11-04T14:32:17;55.50;;;34.22;;
40162;SDS011;25881;47.462;19.304;2022-11-04T14:37:20;56.90;;;34.95;;
40162;SDS011;25881;47.462;19.304;2022-11-04T14:39:46;57.00;;;34.50;;
40162;SDS011;25881;47.462;19.304;2022-11-04T14:42:17;54.85;;;34.33;;
40162;SDS011;25881;47.462;19.304;2022-11-04T14:45:02;55.45;;;33.28;;
40162;SDS011;25881;47.462;19.304;2022-11-04T14:47:31;56.25;;;33.65;;
40162;SDS011;25881;47.462;19.304;2022-11-04T14:52:26;53.23;;;33.77;;
40162;SDS011;25881;47.462;19.304;2022-11-04T14:55:02;57.65;;;34.53;;
40162;SDS011;25881;47.462;19.304;2022-11-04T14:57:29;53.95;;;33.10;;
40162;SDS011;25881;47.462;19.304;2022-11-04T14:59:54;50.38;;;31.80;;
40162;SDS011;25881;47.462;19.304;2022-11-04T15:02:21;49.07;;;31.47;;
40162;SDS011;25881;47.462;19.304;2022-11-04T15:04:48;52.92;;;32.72;;
40162;SDS011;25881;47.462;19.304;2022-11-04T15:09:54;53.40;;;33.72;;
40162;SDS011;25881;47.462;19.304;2022-11-04T15:12:20;46.53;;;32.33;;
40162;SDS011;25881;47.462;19.304;2022-11-04T15:17:47;51.08;;;31.30;;
40162;SDS011;25881;47.462;19.304;2022-11-04T15:20:16;50.87;;;32.17;;
40162;SDS011;25881;47.462;19.304;2022-11-04T15:22:45;53.33;;;32.53;;
40162;SDS011;25881;47.462;19.304;2022-11-04T15:25:10;54.63;;;32.67;;
40162;SDS011;25881;47.462;19.304;2022-11-04T15:27:36;55.00;;;32.42;;
40162;SDS011;25881;47.462;19.304;2022-11-04T15:30:02;52.73;;;32.57;;
40162;SDS011;25881;47.462;19.304;2022-11-04T15:32:28;54.38;;;32.05;;
40162;SDS011;25881;47.462;19.304;2022-11-04T15:34:53;47.53;;;31.93;;
40162;SDS011;25881;47.462;19.304;2022-11-04T15:37:19;49.42;;;31.02;;
40162;SDS011;25881;47.462;19.304;2022-11-04T15:39:46;50.85;;;31.40;;
40162;SDS011;25881;47.462;19.304;2022-11-04T15:42:28;51.50;;;32.67;;
40162;SDS011;25881;47.462;19.304;2022-11-04T15:45:00;50.20;;;32.65;;
40162;SDS011;25881;47.462;19.304;2022-11-04T15:47:40;54.35;;;32.72;;
40162;SDS011;25881;47.462;19.304;2022-11-04T15:50:14;56.70;;;36.07;;
40162;SDS011;25881;47.462;19.304;2022-11-04T15:52:44;61.05;;;34.70;;
40162;SDS011;25881;47.462;19.304;2022-11-04T15:55:18;57.78;;;36.38;;
40162;SDS011;25881;47.462;19.304;2022-11-04T15:57:44;58.33;;;36.10;;
40162;SDS011;25881;47.462;19.304;2022-11-04T16:02:45;61.42;;;37.83;;
40162;SDS011;25881;47.462;19.304;2022-11-04T16:15:29;75.38;;;43.10;;
40162;SDS011;25881;47.462;19.304;2022-11-04T16:17:54;59.28;;;38.63;;
40162;SDS011;25881;47.462;19.304;2022-11-04T16:20:19;69.07;;;40.10;;
40162;SDS011;25881;47.462;19.304;2022-11-04T16:22:45;64.03;;;38.83;;
40162;SDS011;25881;47.462;19.304;2022-11-04T16:25:17;56.70;;;37.13;;
40162;SDS011;25881;47.462;19.304;2022-11-04T16:27:43;55.00;;;37.05;;
40162;SDS011;25881;47.462;19.304;2022-11-04T16:30:16;58.25;;;36.60;;
40162;SDS011;25881;47.462;19.304;2022-11-04T16:32:42;68.95;;;41.00;;
40162;SDS011;25881;47.462;19.304;2022-11-04T16:35:18;63.63;;;40.63;;